Time;durP1;ratioP1;P1;durP2;ratioP2;P2;SDS_P1;SDS_P2;PMS_P1;PMS_P2;Temp;Humidity;BMP_temperature;BMP_pressure;BME280_temperature;BME280_humidity;BME280_pressure;Samples;Min_cycle;Max_cycle;Signal;HPM_P1;HPM_P2
2022/01/03 00:02:04;;;;;;;2.08;1.10;;;;;;;-148.16;100.00;58328.31;5033692;28;20460;-61
2022/01/03 00:04:50;;;;;;;2.33;1.30;;;;;;;-148.16;100.00;58328.31;5034575;28;20049;-60
2022/01/03 00:07:41;;;;;;;2.60;1.35;;;;;;;-148.16;100.00;58328.31;5034409;28;20392;-61
2022/01/03 00:10:27;;;;;;;3.88;1.42;;;;;;;-148.16;100.00;58328.31;5034424;28;20049;-61
2022/01/03 00:13:13;;;;;;;4.72;1.38;;;;;;;-148.16;100.00;58328.31;5034403;28;20050;-61
2022/01/03 00:15:58;;;;;;;3.47;1.50;;;;;;;-148.16;100.00;58328.31;5034413;28;20401;-61
2022/01/03 00:18:44;;;;;;;2.88;1.23;;;;;;;-148.16;100.00;58328.31;5034324;28;20045;-61
2022/01/03 00:21:43;;;;;;;4.28;1.95;;;;;;;-148.16;100.00;58328.31;5034149;28;20053;-60
2022/01/03 00:24:32;;;;;;;4.47;1.75;;;;;;;-148.16;100.00;58328.31;5025272;28;20412;-61
2022/01/03 00:27:22;;;;;;;3.65;1.83;;;;;;;-148.16;100.00;58328.31;5033148;28;20049;-60
2022/01/03 00:30:08;;;;;;;3.42;2.00;;;;;;;-148.16;100.00;58328.31;5034362;28;20049;-61
2022/01/03 00:32:54;;;;;;;3.38;1.80;;;;;;;-148.16;100.00;58328.31;5033988;28;20041;-61
2022/01/03 00:35:41;;;;;;;3.53;1.75;;;;;;;-148.16;100.00;58328.31;5032787;28;20134;-61
2022/01/03 00:38:30;;;;;;;5.85;1.88;;;;;;;-148.16;100.00;58328.31;5038531;28;20493;-61
2022/01/03 00:41:15;;;;;;;3.83;1.92;;;;;;;-148.16;100.00;58328.31;5033914;28;20057;-61
2022/01/03 00:44:02;;;;;;;5.35;1.52;;;;;;;-148.16;100.00;58328.31;5032853;28;20473;-61
2022/01/03 00:46:47;;;;;;;3.33;1.50;;;;;;;-148.16;100.00;58328.31;5033090;28;20046;-60
2022/01/03 00:49:38;;;;;;;4.00;1.65;;;;;;;-148.16;100.00;58328.31;5033816;28;20049;-60
2022/01/03 00:52:24;;;;;;;3.72;1.65;;;;;;;-148.16;100.00;58328.31;5032700;28;20045;-60
2022/01/03 00:55:10;;;;;;;2.60;1.30;;;;;;;-148.16;100.00;58328.31;5018701;28;20071;-61
2022/01/03 00:58:09;;;;;;;3.15;1.50;;;;;;;-148.16;100.00;58328.31;5033542;28;20045;-61
2022/01/03 01:00:56;;;;;;;3.38;1.70;;;;;;;-148.16;100.00;58328.31;5033615;28;20409;-60
2022/01/03 01:03:43;;;;;;;4.82;1.90;;;;;;;-148.16;100.00;58328.31;5018863;28;20057;-61
2022/01/03 01:06:34;;;;;;;4.55;2.00;;;;;;;-148.16;100.00;58328.31;5033939;28;20049;-59
2022/01/03 01:09:24;;;;;;;3.53;1.67;;;;;;;-148.16;100.00;58328.31;5033461;28;20428;-60
2022/01/03 01:12:12;;;;;;;4.53;1.83;;;;;;;-148.16;100.00;58328.31;5033794;28;20420;-60
2022/01/03 01:15:00;;;;;;;4.07;1.40;;;;;;;-148.16;100.00;58328.31;5032581;28;20041;-60
2022/01/03 01:17:48;;;;;;;4.50;1.75;;;;;;;-148.16;100.00;58328.31;5032887;28;20061;-60
2022/01/03 01:20:36;;;;;;;6.05;1.83;;;;;;;-148.16;100.00;58328.31;5038724;28;20354;-60
2022/01/03 01:23:25;;;;;;;4.72;1.70;;;;;;;-148.16;100.00;58328.31;5018472;28;20053;-59
2022/01/03 01:29:18;;;;;;;4.25;1.90;;;;;;;-148.16;100.00;58328.31;5024256;28;20049;-61
2022/01/03 01:32:08;;;;;;;3.67;1.60;;;;;;;-148.16;100.00;58328.31;5032375;28;20049;-61
2022/01/03 01:34:56;;;;;;;4.55;1.75;;;;;;;-148.16;100.00;58328.31;5032820;28;20045;-61
2022/01/03 01:37:46;;;;;;;3.35;2.00;;;;;;;-148.16;100.00;58328.31;5037856;28;20053;-60
2022/01/03 01:40:32;;;;;;;4.60;1.77;;;;;;;-148.16;100.00;58328.31;5033074;28;20038;-59
2022/01/03 01:43:32;;;;;;;3.47;1.98;;;;;;;-148.16;100.00;58328.31;5024311;28;20049;-59
2022/01/03 01:46:21;;;;;;;4.57;1.90;;;;;;;-148.16;100.00;58328.31;5024723;28;20041;-60
2022/01/03 01:49:18;;;;;;;4.22;1.60;;;;;;;-148.16;100.00;58328.31;5018911;28;20045;-60
2022/01/03 01:52:15;;;;;;;4.55;1.35;;;;;;;-148.16;100.00;58328.31;5031897;28;20405;-60
2022/01/03 01:55:06;;;;;;;2.78;1.40;;;;;;;-148.16;100.00;58328.31;5031854;28;20053;-60
2022/01/03 01:58:04;;;;;;;3.03;1.60;;;;;;;-148.16;100.00;58328.31;5031784;28;20057;-60
2022/01/03 02:01:07;;;;;;;2.35;1.50;;;;;;;-148.16;100.00;58328.31;5032079;28;20045;-60
2022/01/03 02:04:07;;;;;;;3.17;1.80;;;;;;;-148.16;100.00;58328.31;5031926;28;20061;-60
2022/01/03 02:06:56;;;;;;;2.88;1.50;;;;;;;-148.16;100.00;58328.31;5032891;28;20049;-60
2022/01/03 02:09:48;;;;;;;3.28;1.25;;;;;;;-148.16;100.00;58328.31;5031287;28;20053;-60
2022/01/03 02:12:37;;;;;;;2.70;1.20;;;;;;;-148.16;100.00;58328.31;5031864;28;20053;-61
2022/01/03 02:15:23;;;;;;;3.88;1.27;;;;;;;-148.16;100.00;58328.31;5031795;28;20053;-59
2022/01/03 02:18:09;;;;;;;4.70;1.58;;;;;;;-148.16;100.00;58328.31;5037409;28;20160;-60
2022/01/03 02:20:55;;;;;;;4.38;1.33;;;;;;;-148.16;100.00;58328.31;5032531;28;20405;-60
2022/01/03 02:23:41;;;;;;;3.58;1.33;;;;;;;-148.16;100.00;58328.31;5031619;28;20042;-60
2022/01/03 02:26:30;;;;;;;3.08;1.50;;;;;;;-148.16;100.00;58328.31;5031632;28;20389;-60
2022/01/03 02:29:16;;;;;;;2.58;1.48;;;;;;;-148.16;100.00;58328.31;5032590;28;20041;-59
2022/01/03 02:32:02;;;;;;;3.35;1.55;;;;;;;-148.16;100.00;58328.31;5031934;28;20061;-60
2022/01/03 02:34:48;;;;;;;3.28;1.55;;;;;;;-148.16;100.00;58328.31;5031828;28;20392;-60
2022/01/03 02:37:35;;;;;;;3.08;1.63;;;;;;;-148.16;100.00;58328.31;5031846;28;20050;-60
2022/01/03 02:40:22;;;;;;;3.10;1.40;;;;;;;-148.16;100.00;58328.31;5031307;28;20050;-60
2022/01/03 02:43:10;;;;;;;2.90;1.30;;;;;;;-148.16;100.00;58328.31;5031353;28;20049;-60
2022/01/03 02:45:57;;;;;;;3.15;1.48;;;;;;;-148.16;100.00;58328.31;5031756;28;20492;-60
2022/01/03 02:48:43;;;;;;;5.70;1.40;;;;;;;-148.16;100.00;58328.31;5036982;28;20053;-60
2022/01/03 02:51:30;;;;;;;3.03;1.50;;;;;;;-148.16;100.00;58328.31;5031525;28;20053;-60
2022/01/03 02:54:16;;;;;;;2.78;1.30;;;;;;;-148.16;100.00;58328.31;5032347;28;20045;-60
2022/01/03 02:57:02;;;;;;;3.05;1.48;;;;;;;-148.16;100.00;58328.31;5031267;28;20041;-60
2022/01/03 02:59:58;;;;;;;4.75;1.30;;;;;;;-148.16;100.00;58328.31;5037092;28;20053;-60
2022/01/03 03:02:44;;;;;;;2.45;1.30;;;;;;;-148.16;100.00;58328.31;5035866;28;20049;-60
2022/01/03 03:05:30;;;;;;;3.28;1.05;;;;;;;-148.16;100.00;58328.31;5033621;28;20033;-60
2022/01/03 03:08:17;;;;;;;4.10;1.65;;;;;;;-148.16;100.00;58328.31;5034760;28;20049;-60
2022/01/03 03:11:04;;;;;;;4.00;1.80;;;;;;;-148.16;100.00;58328.31;5034727;28;20045;-60
2022/01/03 03:13:50;;;;;;;3.53;1.67;;;;;;;-148.16;100.00;58328.31;5034668;28;20053;-59
2022/01/03 03:16:36;;;;;;;6.40;1.50;;;;;;;-148.16;100.00;58328.31;5035467;28;20053;-60
2022/01/03 03:19:22;;;;;;;3.72;1.77;;;;;;;-148.16;100.00;58328.31;5034307;28;20045;-60
2022/01/03 03:22:07;;;;;;;4.03;1.40;;;;;;;-148.16;100.00;58328.31;5035191;28;20049;-59
2022/01/03 03:25:08;;;;;;;2.63;1.48;;;;;;;-148.16;100.00;58328.31;5034255;28;20041;-60
2022/01/03 03:27:57;;;;;;;2.90;1.35;;;;;;;-148.16;100.00;58328.31;5035313;28;20045;-60
2022/01/03 03:30:48;;;;;;;3.40;1.70;;;;;;;-148.16;100.00;58328.31;5034536;28;20046;-60
2022/01/03 03:33:40;;;;;;;2.97;1.30;;;;;;;-148.16;100.00;58328.31;5035265;28;20041;-60
2022/01/03 03:36:26;;;;;;;3.28;1.60;;;;;;;-148.16;100.00;58328.31;5035213;28;20361;-59
2022/01/03 03:39:12;;;;;;;2.63;1.42;;;;;;;-148.16;100.00;58328.31;5039934;28;20428;-60
2022/01/03 03:41:58;;;;;;;3.90;1.50;;;;;;;-148.16;100.00;58328.31;5034363;28;20057;-60
2022/01/03 03:44:45;;;;;;;3.03;1.27;;;;;;;-148.16;100.00;58328.31;5035409;28;20400;-60
2022/01/03 03:47:32;;;;;;;5.20;2.67;;;;;;;-148.16;100.00;58328.31;5034176;28;20482;-59
2022/01/03 03:50:20;;;;;;;2.15;1.33;;;;;;;-148.16;100.00;58328.31;5020300;28;20049;-60
2022/01/03 03:53:06;;;;;;;2.92;1.50;;;;;;;-148.16;100.00;58328.31;5034302;28;20046;-60
2022/01/03 03:55:52;;;;;;;4.47;1.85;;;;;;;-148.16;100.00;58328.31;5033957;28;20041;-60
2022/01/03 03:58:39;;;;;;;4.00;1.33;;;;;;;-148.16;100.00;58328.31;5034934;28;20052;-60
2022/01/03 04:01:25;;;;;;;5.07;2.20;;;;;;;-148.16;100.00;58328.31;5034648;28;20045;-60
2022/01/03 04:04:14;;;;;;;3.03;1.73;;;;;;;-148.16;100.00;58328.31;5020246;28;20049;-60
2022/01/03 04:07:02;;;;;;;2.58;1.20;;;;;;;-148.16;100.00;58328.31;5033600;28;20042;-60
2022/01/03 04:09:48;;;;;;;3.53;1.95;;;;;;;-148.16;100.00;58328.31;5037885;28;20057;-60
2022/01/03 04:12:34;;;;;;;3.60;2.10;;;;;;;-148.16;100.00;58328.31;5033499;28;20053;-60
2022/01/03 04:15:22;;;;;;;4.25;2.40;;;;;;;-148.16;100.00;58328.31;5033375;28;20046;-60
2022/01/03 04:18:11;;;;;;;3.05;2.00;;;;;;;-148.16;100.00;58328.31;5025240;28;20045;-61
2022/01/03 04:20:57;;;;;;;6.53;2.22;;;;;;;-148.16;100.00;58328.31;5034278;28;20041;-60
2022/01/03 04:23:43;;;;;;;3.55;2.00;;;;;;;-148.16;100.00;58328.31;5019691;28;20049;-60
2022/01/03 04:26:29;;;;;;;4.55;1.90;;;;;;;-148.16;100.00;58328.31;5033502;28;20061;-60
2022/01/03 04:29:15;;;;;;;3.50;2.03;;;;;;;-148.16;100.00;58328.31;5038901;28;20053;-60
2022/01/03 04:32:03;;;;;;;2.85;1.40;;;;;;;-148.16;100.00;58328.31;5033705;28;20049;-60
2022/01/03 04:34:48;;;;;;;4.97;1.80;;;;;;;-148.16;100.00;58328.31;5019478;28;20358;-61
2022/01/03 04:37:35;;;;;;;3.00;1.85;;;;;;;-148.16;100.00;58328.31;5039146;28;20050;-60
2022/01/03 04:40:21;;;;;;;2.92;1.45;;;;;;;-148.16;100.00;58328.31;5026092;28;20045;-60
2022/01/03 04:43:07;;;;;;;2.97;1.35;;;;;;;-148.16;100.00;58328.31;5034226;28;20041;-60
2022/01/03 04:45:54;;;;;;;2.75;1.65;;;;;;;-148.16;100.00;58328.31;5033144;28;20041;-60
2022/01/03 04:48:42;;;;;;;3.40;1.55;;;;;;;-148.16;100.00;58328.31;5033145;28;20399;-61
2022/01/03 04:51:28;;;;;;;3.25;1.40;;;;;;;-148.16;100.00;58328.31;5032867;28;20053;-60
2022/01/03 04:54:14;;;;;;;4.35;1.10;;;;;;;-148.16;100.00;58328.31;5019308;28;20481;-59
2022/01/03 04:57:00;;;;;;;3.85;1.98;;;;;;;-148.16;100.00;58328.31;5032947;28;20045;-59
2022/01/03 04:59:49;;;;;;;3.28;1.77;;;;;;;-148.16;100.00;58328.31;5032677;28;20049;-60
2022/01/03 05:02:37;;;;;;;4.68;1.63;;;;;;;-148.16;100.00;58328.31;5032844;28;20045;-60
2022/01/03 05:05:22;;;;;;;4.25;1.38;;;;;;;-148.16;100.00;58328.31;5032673;28;20045;-60
2022/01/03 05:08:09;;;;;;;3.85;1.67;;;;;;;-148.16;100.00;58328.31;5032554;28;20053;-60
2022/01/03 05:11:00;;;;;;;3.22;1.65;;;;;;;-148.16;100.00;58328.31;5032451;28;20061;-60
2022/01/03 05:13:46;;;;;;;4.57;1.20;;;;;;;-148.16;100.00;58328.31;5032341;28;20041;-60
2022/01/03 05:16:32;;;;;;;2.75;1.20;;;;;;;-148.16;100.00;58328.31;5033376;28;20041;-60
2022/01/03 05:19:18;;;;;;;3.17;0.90;;;;;;;-148.16;100.00;58328.31;5033284;28;20049;-60
2022/01/03 05:22:04;;;;;;;2.58;1.20;;;;;;;-148.16;100.00;58328.31;5033080;28;20049;-60
2022/01/03 05:24:51;;;;;;;2.38;1.10;;;;;;;-148.16;100.00;58328.31;5032237;28;20068;-59
2022/01/03 05:27:38;;;;;;;2.53;1.13;;;;;;;-148.16;100.00;58328.31;5033251;28;20053;-59
2022/01/03 05:30:24;;;;;;;4.00;1.40;;;;;;;-148.16;100.00;58328.31;5033411;28;20053;-60
2022/01/03 05:33:11;;;;;;;3.50;1.00;;;;;;;-148.16;100.00;58328.31;5032159;28;20045;-59
2022/01/03 05:35:57;;;;;;;4.10;1.33;;;;;;;-148.16;100.00;58328.31;5024219;28;20045;-59
2022/01/03 05:38:43;;;;;;;2.53;1.23;;;;;;;-148.16;100.00;58328.31;5031977;28;20053;-59
2022/01/03 05:41:29;;;;;;;2.28;1.15;;;;;;;-148.16;100.00;58328.31;5032781;28;20496;-60
2022/01/03 05:44:15;;;;;;;1.60;0.80;;;;;;;-148.16;100.00;58328.31;5032842;28;20037;-60
2022/01/03 05:47:02;;;;;;;2.83;0.82;;;;;;;-148.16;100.00;58328.31;5032073;28;20050;-60
2022/01/03 05:49:49;;;;;;;2.42;0.82;;;;;;;-148.16;100.00;58328.31;5032045;28;20049;-60
2022/01/03 05:52:35;;;;;;;1.85;0.73;;;;;;;-148.16;100.00;58328.31;5024233;28;20053;-60
2022/01/03 05:55:24;;;;;;;1.23;0.60;;;;;;;-148.16;100.00;58328.31;5031880;28;20046;-60
2022/01/03 05:58:10;;;;;;;1.85;1.00;;;;;;;-148.16;100.00;58328.31;5032139;28;20430;-60
2022/01/03 06:00:58;;;;;;;2.22;0.70;;;;;;;-148.16;100.00;58328.31;5037379;28;20413;-60
2022/01/03 06:03:46;;;;;;;3.55;0.88;;;;;;;-148.16;100.00;58328.31;5031510;28;20038;-60
2022/01/03 06:09:38;;;;;;;1.92;0.70;;;;;;;-148.16;100.00;58328.31;5031266;28;20432;-60
2022/01/03 06:12:24;;;;;;;1.75;0.70;;;;;;;-148.16;100.00;58328.31;5031338;28;20045;-60
2022/01/03 06:15:14;;;;;;;5.18;0.68;;;;;;;-148.16;100.00;58328.31;5031661;28;20408;-60
2022/01/03 06:18:01;;;;;;;1.95;0.50;;;;;;;-148.16;100.00;58328.31;5017924;28;20045;-61
2022/01/03 06:20:48;;;;;;;2.08;1.05;;;;;;;-148.16;100.00;58328.31;5017895;28;20049;-60
2022/01/03 06:23:36;;;;;;;2.55;0.75;;;;;;;-148.16;100.00;58328.31;5031446;28;20424;-60
2022/01/03 06:26:22;;;;;;;2.25;0.45;;;;;;;-148.16;100.00;58328.31;5032485;28;20045;-60
2022/01/03 06:29:13;;;;;;;1.98;0.75;;;;;;;-148.16;100.00;58328.31;5032606;28;20041;-59
2022/01/03 06:31:59;;;;;;;0.82;0.40;;;;;;;-148.16;100.00;58328.31;5031740;28;20050;-60
2022/01/03 06:34:45;;;;;;;3.85;0.90;;;;;;;-148.16;100.00;58328.31;5035399;28;20049;-60
2022/01/03 06:37:31;;;;;;;0.93;0.50;;;;;;;-148.16;100.00;58328.31;5035516;28;20057;-60
2022/01/03 06:40:25;;;;;;;2.50;0.50;;;;;;;-148.16;100.00;58328.31;5035080;28;20049;-60
2022/01/03 06:43:11;;;;;;;2.83;0.70;;;;;;;-148.16;100.00;58328.31;5035166;28;20037;-60
2022/01/03 06:45:57;;;;;;;2.33;0.43;;;;;;;-148.16;100.00;58328.31;5036199;28;20045;-60
2022/01/03 06:48:43;;;;;;;3.17;0.60;;;;;;;-148.16;100.00;58328.31;5034936;28;20045;-60
2022/01/03 06:51:34;;;;;;;5.32;0.70;;;;;;;-148.16;100.00;58328.31;5034925;28;20053;-60
2022/01/03 06:54:21;;;;;;;1.52;0.57;;;;;;;-148.16;100.00;58328.31;5034983;28;20042;-60
2022/01/03 06:57:12;;;;;;;1.80;0.47;;;;;;;-148.16;100.00;58328.31;5041054;28;20050;-59
2022/01/03 06:59:59;;;;;;;3.17;0.30;;;;;;;-148.16;100.00;58328.31;5040639;28;20050;-60
2022/01/03 07:02:45;;;;;;;1.25;0.43;;;;;;;-148.16;100.00;58328.31;5034908;28;20049;-60
2022/01/03 07:05:31;;;;;;;1.30;0.52;;;;;;;-148.16;100.00;58328.31;5035578;28;20412;-61
2022/01/03 07:08:20;;;;;;;3.35;0.60;;;;;;;-148.16;100.00;58328.31;5035924;28;20042;-60
2022/01/03 07:11:06;;;;;;;1.52;0.65;;;;;;;-148.16;100.00;58328.31;5036181;28;20488;-60
2022/01/03 07:14:04;;;;;;;3.58;0.55;;;;;;;-148.16;100.00;58328.31;5041645;28;20053;-60
2022/01/03 07:19:59;;;;;;;1.52;0.50;;;;;;;-148.16;100.00;58328.31;5035515;28;20053;-59
2022/01/03 07:22:46;;;;;;;1.42;0.40;;;;;;;-148.16;100.00;58328.31;5035575;28;20050;-59
2022/01/03 07:25:32;;;;;;;3.05;0.60;;;;;;;-148.16;100.00;58328.31;5040407;28;20049;-59
2022/01/03 07:28:18;;;;;;;4.93;0.70;;;;;;;-148.16;100.00;58328.31;5035791;28;20046;-59
2022/01/03 07:31:05;;;;;;;3.50;0.70;;;;;;;-148.16;100.00;58328.31;5035654;28;20057;-59
2022/01/03 07:33:51;;;;;;;2.22;0.88;;;;;;;-148.16;100.00;58328.31;5034380;28;20041;-59
2022/01/03 07:36:36;;;;;;;2.28;0.52;;;;;;;-148.16;100.00;58328.31;5035374;28;20045;-60
2022/01/03 07:39:22;;;;;;;4.95;0.63;;;;;;;-148.16;100.00;58328.31;5034953;28;20049;-59
2022/01/03 07:42:08;;;;;;;0.80;0.57;;;;;;;-148.16;100.00;58328.31;5035072;28;20037;-60
2022/01/03 07:44:59;;;;;;;2.73;0.73;;;;;;;-148.16;100.00;58328.31;5033986;28;20477;-60
2022/01/03 07:47:44;;;;;;;1.13;0.57;;;;;;;-148.16;100.00;58328.31;5035012;28;20049;-59
2022/01/03 07:50:30;;;;;;;1.60;0.60;;;;;;;-148.16;100.00;58328.31;5034926;28;20049;-60
2022/01/03 07:53:16;;;;;;;2.15;0.57;;;;;;;-148.16;100.00;58328.31;5035233;28;20046;-60
2022/01/03 07:56:05;;;;;;;1.20;0.50;;;;;;;-148.16;100.00;58328.31;5034812;28;20046;-59
2022/01/03 07:58:50;;;;;;;1.65;0.40;;;;;;;-148.16;100.00;58328.31;5039567;28;20045;-60
2022/01/03 08:01:40;;;;;;;2.92;0.57;;;;;;;-148.16;100.00;58328.31;5035452;28;20548;-59
2022/01/03 08:04:26;;;;;;;0.77;0.38;;;;;;;-148.16;100.00;58328.31;5033717;28;20045;-60
2022/01/03 08:07:12;;;;;;;0.85;0.40;;;;;;;-148.16;100.00;58328.31;5034584;28;20042;-59
2022/01/03 08:09:58;;;;;;;1.13;0.40;;;;;;;-148.16;100.00;58328.31;5034664;28;20053;-60
2022/01/03 08:12:44;;;;;;;2.83;0.30;;;;;;;-148.16;100.00;58328.31;5034578;28;20045;-59
2022/01/03 08:15:30;;;;;;;0.82;0.30;;;;;;;-148.16;100.00;58328.31;5034832;28;20373;-60
2022/01/03 08:18:16;;;;;;;0.75;0.25;;;;;;;-148.16;100.00;58328.31;5034534;28;20050;-59
2022/01/03 08:21:02;;;;;;;1.00;0.30;;;;;;;-148.16;100.00;58328.31;5034263;28;20045;-60
2022/01/03 08:23:48;;;;;;;0.98;0.20;;;;;;;-148.16;100.00;58328.31;5034414;28;20405;-59
2022/01/03 08:26:36;;;;;;;1.00;0.40;;;;;;;-148.16;100.00;58328.31;5034309;28;20041;-60
2022/01/03 08:29:22;;;;;;;0.88;0.30;;;;;;;-148.16;100.00;58328.31;5033413;28;20485;-60
2022/01/03 08:32:08;;;;;;;0.80;0.20;;;;;;;-148.16;100.00;58328.31;5034442;28;20408;-60
2022/01/03 08:34:54;;;;;;;1.50;0.30;;;;;;;-148.16;100.00;58328.31;5033385;28;20053;-60
2022/01/03 08:37:39;;;;;;;0.90;0.25;;;;;;;-148.16;100.00;58328.31;5034202;28;20416;-60
2022/01/03 08:40:27;;;;;;;1.35;0.50;;;;;;;-148.16;100.00;58328.31;5034108;28;20042;-60
2022/01/03 08:43:14;;;;;;;0.57;0.25;;;;;;;-148.16;100.00;58328.31;5032945;28;20405;-61
2022/01/03 08:46:00;;;;;;;0.88;0.30;;;;;;;-148.16;100.00;58328.31;5034088;28;20246;-60
2022/01/03 08:48:46;;;;;;;0.60;0.20;;;;;;;-148.16;100.00;58328.31;5019171;28;20045;-61
2022/01/03 08:51:33;;;;;;;1.38;0.30;;;;;;;-148.16;100.00;58328.31;5033791;28;20494;-59
2022/01/03 08:54:18;;;;;;;2.25;0.43;;;;;;;-148.16;100.00;58328.31;5033938;28;20041;-60
2022/01/03 08:57:04;;;;;;;1.75;0.50;;;;;;;-148.16;100.00;58328.31;5033101;28;20041;-61
2022/01/03 08:59:51;;;;;;;1.10;0.30;;;;;;;-148.16;100.00;58328.31;5038468;28;20140;-60
2022/01/03 09:02:36;;;;;;;0.50;0.28;;;;;;;-148.16;100.00;58328.31;5032655;28;20041;-61
2022/01/03 09:05:22;;;;;;;1.42;0.30;;;;;;;-148.16;100.00;58328.31;5032560;28;20053;-59
2022/01/03 09:08:09;;;;;;;0.88;0.35;;;;;;;-148.16;100.00;58328.31;5033823;28;20042;-61
2022/01/03 09:10:56;;;;;;;1.73;0.38;;;;;;;-148.16;100.00;58328.31;5033939;28;20057;-61
2022/01/03 09:13:42;;;;;;;1.33;0.25;;;;;;;-148.16;100.00;58328.31;5033543;28;20046;-60
2022/01/03 09:16:27;;;;;;;0.82;0.28;;;;;;;-148.16;100.00;58328.31;5033432;28;20041;-60
2022/01/03 09:19:13;;;;;;;1.10;0.20;;;;;;;-148.16;100.00;58328.31;5038360;28;20053;-60
2022/01/03 09:22:09;;;;;;;1.23;0.25;;;;;;;-148.16;100.00;58328.31;5033380;28;20045;-60
2022/01/03 09:30:55;;;;;;;2.60;0.43;;;;;;;-148.16;100.00;58328.31;5032191;28;20046;-60
2022/01/03 09:33:41;;;;;;;0.73;0.30;;;;;;;-148.16;100.00;58328.31;5033376;28;20049;-60
2022/01/03 09:36:28;;;;;;;2.65;0.30;;;;;;;-148.16;100.00;58328.31;5037778;28;20046;-60
2022/01/03 09:39:14;;;;;;;3.42;0.50;;;;;;;-148.16;100.00;58328.31;5032922;28;20045;-60
2022/01/03 09:42:07;;;;;;;1.70;0.30;;;;;;;-148.16;100.00;58328.31;5032964;28;20404;-59
2022/01/03 09:44:54;;;;;;;1.60;0.32;;;;;;;-148.16;100.00;58328.31;5033595;28;20054;-60
2022/01/03 09:47:44;;;;;;;0.77;0.30;;;;;;;-148.16;100.00;58328.31;5033017;28;20049;-61
2022/01/03 09:50:33;;;;;;;3.28;0.52;;;;;;;-148.16;100.00;58328.31;5031839;28;20054;-61
2022/01/03 09:53:20;;;;;;;2.20;0.40;;;;;;;-148.16;100.00;58328.31;5033077;28;20053;-61
2022/01/03 09:56:06;;;;;;;1.58;0.40;;;;;;;-148.16;100.00;58328.31;5032959;28;20053;-61
2022/01/03 09:58:52;;;;;;;0.60;0.30;;;;;;;-148.16;100.00;58328.31;5037439;28;20050;-61
2022/01/03 10:01:40;;;;;;;1.17;0.73;;;;;;;-148.16;100.00;58328.31;5032888;28;20053;-61
2022/01/03 10:04:25;;;;;;;0.93;0.30;;;;;;;-148.16;100.00;58328.31;5032849;28;20050;-63
2022/01/03 10:07:14;;;;;;;1.10;0.35;;;;;;;-148.16;100.00;58328.31;5032624;28;20053;-60
2022/01/03 10:10:01;;;;;;;2.42;0.50;;;;;;;-148.16;100.00;58328.31;5031928;28;20057;-60
2022/01/03 10:12:47;;;;;;;1.65;0.50;;;;;;;-148.16;100.00;58328.31;5033062;28;20075;-60
2022/01/03 10:15:33;;;;;;;1.60;0.40;;;;;;;-148.16;100.00;58328.31;5031546;28;20054;-61
2022/01/03 10:18:20;;;;;;;0.73;0.32;;;;;;;-148.16;100.00;58328.31;5032588;28;20049;-60
2022/01/03 10:21:07;;;;;;;1.20;0.35;;;;;;;-148.16;100.00;58328.31;5032441;28;20477;-61
2022/01/03 10:23:57;;;;;;;0.40;0.20;;;;;;;-148.16;100.00;58328.31;5037171;28;20045;-61
2022/01/03 10:26:54;;;;;;;0.80;0.30;;;;;;;-148.16;100.00;58328.31;5032275;28;20045;-61
2022/01/03 10:29:41;;;;;;;1.05;0.20;;;;;;;-148.16;100.00;58328.31;5036961;28;20053;-61
2022/01/03 10:32:29;;;;;;;1.92;0.50;;;;;;;-148.16;100.00;58328.31;5032047;28;20049;-61
2022/01/03 10:35:17;;;;;;;1.77;0.45;;;;;;;-148.16;100.00;58328.31;5036851;28;20045;-60
2022/01/03 10:38:03;;;;;;;2.33;1.05;;;;;;;-148.16;100.00;58328.31;5032149;28;20053;-62
2022/01/03 10:40:48;;;;;;;0.60;0.20;;;;;;;-148.16;100.00;58328.31;5037954;28;20053;-62
2022/01/03 10:43:34;;;;;;;1.08;0.20;;;;;;;-148.16;100.00;58328.31;5031940;28;20045;-62
2022/01/03 10:46:27;;;;;;;2.13;0.30;;;;;;;-148.16;100.00;58328.31;5031639;28;20058;-61
2022/01/03 10:49:18;;;;;;;1.55;0.30;;;;;;;-148.16;100.00;58328.31;5032238;28;20401;-61
2022/01/03 10:52:18;;;;;;;1.38;0.38;;;;;;;-148.16;100.00;58328.31;5032426;28;20049;-62
2022/01/03 10:55:17;;;;;;;1.33;0.50;;;;;;;-148.16;100.00;58328.31;5038183;28;20403;-62
2022/01/03 10:58:07;;;;;;;1.80;0.40;;;;;;;-148.16;100.00;58328.31;5032095;28;20042;-61
2022/01/03 11:00:54;;;;;;;1.40;0.40;;;;;;;-148.16;100.00;58328.31;5032265;28;20049;-61
2022/01/03 11:03:43;;;;;;;1.38;0.20;;;;;;;-148.16;100.00;58328.31;5032275;28;20058;-61
2022/01/03 11:12:27;;;;;;;1.10;0.30;;;;;;;-148.16;100.00;58328.31;5036887;28;20049;-61
2022/01/03 11:15:20;;;;;;;2.60;0.20;;;;;;;-148.16;100.00;58328.31;5031968;28;20049;-62
2022/01/03 11:18:29;;;;;;;2.08;0.30;;;;;;;-148.16;100.00;58328.31;5032305;28;20049;-61
2022/01/03 11:21:24;;;;;;;1.63;0.30;;;;;;;-148.16;100.00;58328.31;5035203;28;20045;-61
2022/01/03 11:24:14;;;;;;;0.60;0.32;;;;;;;-148.16;100.00;58328.31;5034580;28;20046;-61
2022/01/03 11:27:00;;;;;;;2.17;0.35;;;;;;;-148.16;100.00;58328.31;5035475;28;20045;-61
2022/01/03 11:29:47;;;;;;;0.30;0.10;;;;;;;-148.16;100.00;58328.31;5039973;28;20049;-61
2022/01/03 11:32:34;;;;;;;1.83;0.30;;;;;;;-148.16;100.00;58328.31;5033997;28;20045;-61
2022/01/03 11:35:20;;;;;;;0.28;0.10;;;;;;;-148.16;100.00;58328.31;5034908;28;20469;-61
2022/01/03 11:38:07;;;;;;;1.17;0.32;;;;;;;-148.16;100.00;58328.31;5039985;28;20045;-61
2022/01/03 11:40:53;;;;;;;0.68;0.30;;;;;;;-148.16;100.00;58328.31;5034921;28;20392;-61
2022/01/03 11:43:43;;;;;;;1.95;0.35;;;;;;;-148.16;100.00;58328.31;5033848;28;20385;-60
2022/01/03 11:46:29;;;;;;;1.80;0.22;;;;;;;-148.16;100.00;58328.31;5033973;28;20041;-60
2022/01/03 11:49:17;;;;;;;0.60;0.20;;;;;;;-148.16;100.00;58328.31;5034036;28;20049;-60
2022/01/03 11:52:09;;;;;;;0.50;0.30;;;;;;;-148.16;100.00;58328.31;5039427;28;20409;-61
2022/01/03 11:54:56;;;;;;;1.60;0.20;;;;;;;-148.16;100.00;58328.31;5034227;28;20045;-62
2022/01/03 12:04:17;;;;;;;1.73;0.30;;;;;;;-148.16;100.00;58328.31;5038929;28;20042;-62
2022/01/03 12:07:12;;;;;;;0.82;0.30;;;;;;;-148.16;100.00;58328.31;5040616;28;20042;-62
2022/01/03 12:10:09;;;;;;;1.48;0.20;;;;;;;-148.16;100.00;58328.31;5038818;28;20049;-62
2022/01/03 12:12:58;;;;;;;2.50;0.25;;;;;;;-148.16;100.00;58328.31;5034540;28;20485;-61
2022/01/03 12:15:44;;;;;;;1.70;0.30;;;;;;;-148.16;100.00;58328.31;5034696;28;20046;-62
2022/01/03 12:18:31;;;;;;;0.43;0.20;;;;;;;-148.16;100.00;58328.31;5033484;28;20045;-63
2022/01/03 12:21:55;;;;;;;0.82;0.20;;;;;;;-148.16;100.00;58328.31;5019848;28;20053;-62
2022/01/03 12:24:40;;;;;;;1.40;0.30;;;;;;;-148.16;100.00;58328.31;5034241;28;20045;-61
2022/01/03 12:27:35;;;;;;;0.90;0.15;;;;;;;-148.16;100.00;58328.31;5039182;28;20481;-62
2022/01/03 12:30:23;;;;;;;1.48;0.40;;;;;;;-148.16;100.00;58328.31;5034457;28;20049;-62
2022/01/03 12:33:10;;;;;;;0.85;0.20;;;;;;;-148.16;100.00;58328.31;5034360;28;20057;-63
2022/01/03 12:36:17;;;;;;;3.30;0.20;;;;;;;-148.16;100.00;58328.31;5033143;28;20461;-62
2022/01/03 12:39:08;;;;;;;1.80;0.40;;;;;;;-148.16;100.00;58328.31;5034514;28;20049;-62
2022/01/03 12:41:55;;;;;;;0.57;0.20;;;;;;;-148.16;100.00;58328.31;5034531;28;20046;-63
2022/01/03 12:44:45;;;;;;;1.90;0.25;;;;;;;-148.16;100.00;58328.31;5033037;28;20053;-63
2022/01/03 12:47:37;;;;;;;3.00;0.13;;;;;;;-148.16;100.00;58328.31;5034141;28;20041;-61
2022/01/03 12:50:29;;;;;;;1.05;0.20;;;;;;;-148.16;100.00;58328.31;5034184;28;20053;-61
2022/01/03 12:53:18;;;;;;;0.60;0.20;;;;;;;-148.16;100.00;58328.31;5033514;28;20045;-61
2022/01/03 12:56:19;;;;;;;1.50;0.32;;;;;;;-148.16;100.00;58328.31;5032813;28;20045;-62
2022/01/03 12:59:14;;;;;;;;;;;;;;;-148.16;100.00;58328.31;5034488;28;20045;-62
2022/01/03 13:02:28;;;;;;;0.85;0.13;;;;;;;-148.16;100.00;58328.31;5033771;28;19913;-61
2022/01/03 13:05:14;;;;;;;0.77;0.30;;;;;;;-148.16;100.00;58328.31;5038524;28;20464;-61
2022/01/03 13:08:00;;;;;;;2.13;0.40;;;;;;;-148.16;100.00;58328.31;5032895;28;20484;-61
2022/01/03 13:11:06;;;;;;;1.48;0.30;;;;;;;-148.16;100.00;58328.31;5033691;28;20049;-61
2022/01/03 13:13:57;;;;;;;1.13;0.25;;;;;;;-148.16;100.00;58328.31;5032009;28;20041;-61